sensor_id;sensor_type;location;lat;lon;timestamp;P1;durP1;ratioP1;P2;durP2;ratioP2
19131;SDS011;9698;51.976;7.570;2023-11-19T00:01:44;9.20;;;8.27;;
19131;SDS011;9698;51.976;7.570;2023-11-19T00:04:13;9.37;;;8.33;;
19131;SDS011;9698;51.976;7.570;2023-11-19T00:06:41;8.93;;;8.03;;
19131;SDS011;9698;51.976;7.570;2023-11-19T00:09:09;9.07;;;8.27;;
19131;SDS011;9698;51.976;7.570;2023-11-19T00:11:36;9.40;;;8.37;;
19131;SDS011;9698;51.976;7.570;2023-11-19T00:14:05;8.90;;;8.10;;
19131;SDS011;9698;51.976;7.570;2023-11-19T00:16:34;8.27;;;7.57;;
19131;SDS011;9698;51.976;7.570;2023-11-19T00:19:02;8.70;;;7.90;;
19131;SDS011;9698;51.976;7.570;2023-11-19T00:21:30;9.00;;;8.20;;
19131;SDS011;9698;51.976;7.570;2023-11-19T00:23:59;8.67;;;7.90;;
19131;SDS011;9698;51.976;7.570;2023-11-19T00:26:27;9.20;;;8.40;;
19131;SDS011;9698;51.976;7.570;2023-11-19T00:28:55;8.83;;;8.03;;
19131;SDS011;9698;51.976;7.570;2023-11-19T00:31:23;8.90;;;8.10;;
19131;SDS011;9698;51.976;7.570;2023-11-19T00:33:52;9.13;;;8.20;;
19131;SDS011;9698;51.976;7.570;2023-11-19T00:36:20;9.47;;;8.63;;
19131;SDS011;9698;51.976;7.570;2023-11-19T00:38:50;9.50;;;8.60;;
19131;SDS011;9698;51.976;7.570;2023-11-19T00:41:18;8.93;;;8.13;;
19131;SDS011;9698;51.976;7.570;2023-11-19T00:43:46;10.53;;;9.53;;
19131;SDS011;9698;51.976;7.570;2023-11-19T00:46:15;10.20;;;9.30;;
19131;SDS011;9698;51.976;7.570;2023-11-19T00:48:43;10.37;;;9.37;;
19131;SDS011;9698;51.976;7.570;2023-11-19T00:51:12;11.10;;;9.70;;
19131;SDS011;9698;51.976;7.570;2023-11-19T00:53:40;11.13;;;10.10;;
19131;SDS011;9698;51.976;7.570;2023-11-19T00:56:08;12.47;;;11.27;;
19131;SDS011;9698;51.976;7.570;2023-11-19T00:58:38;12.83;;;11.63;;
19131;SDS011;9698;51.976;7.570;2023-11-19T01:01:06;14.30;;;12.93;;
19131;SDS011;9698;51.976;7.570;2023-11-19T01:03:34;14.07;;;12.23;;
19131;SDS011;9698;51.976;7.570;2023-11-19T01:06:02;14.00;;;12.60;;
19131;SDS011;9698;51.976;7.570;2023-11-19T01:08:31;14.90;;;13.33;;
19131;SDS011;9698;51.976;7.570;2023-11-19T01:10:59;15.00;;;13.47;;
19131;SDS011;9698;51.976;7.570;2023-11-19T01:13:26;15.53;;;13.93;;
19131;SDS011;9698;51.976;7.570;2023-11-19T01:15:54;17.33;;;14.37;;
19131;SDS011;9698;51.976;7.570;2023-11-19T01:18:22;17.37;;;14.73;;
19131;SDS011;9698;51.976;7.570;2023-11-19T01:20:50;16.57;;;14.70;;
19131;SDS011;9698;51.976;7.570;2023-11-19T01:23:18;16.50;;;14.70;;
19131;SDS011;9698;51.976;7.570;2023-11-19T01:25:45;18.23;;;15.13;;
19131;SDS011;9698;51.976;7.570;2023-11-19T01:28:14;20.70;;;14.80;;
19131;SDS011;9698;51.976;7.570;2023-11-19T01:30:42;19.10;;;16.10;;
19131;SDS011;9698;51.976;7.570;2023-11-19T01:33:10;19.67;;;16.23;;
19131;SDS011;9698;51.976;7.570;2023-11-19T01:35:37;17.60;;;15.50;;
19131;SDS011;9698;51.976;7.570;2023-11-19T01:38:05;19.13;;;15.87;;
19131;SDS011;9698;51.976;7.570;2023-11-19T01:40:34;21.97;;;17.80;;
19131;SDS011;9698;51.976;7.570;2023-11-19T01:43:03;20.80;;;16.90;;
19131;SDS011;9698;51.976;7.570;2023-11-19T01:45:30;21.93;;;17.87;;
19131;SDS011;9698;51.976;7.570;2023-11-19T01:48:01;22.97;;;18.30;;
19131;SDS011;9698;51.976;7.570;2023-11-19T01:50:30;21.97;;;17.63;;
19131;SDS011;9698;51.976;7.570;2023-11-19T01:52:59;22.97;;;18.53;;
19131;SDS011;9698;51.976;7.570;2023-11-19T01:55:27;19.63;;;16.73;;
19131;SDS011;9698;51.976;7.570;2023-11-19T01:57:55;23.97;;;18.47;;
19131;SDS011;9698;51.976;7.570;2023-11-19T02:00:28;21.77;;;18.20;;
19131;SDS011;9698;51.976;7.570;2023-11-19T02:02:56;25.37;;;19.07;;
19131;SDS011;9698;51.976;7.570;2023-11-19T02:05:25;24.70;;;19.47;;
19131;SDS011;9698;51.976;7.570;2023-11-19T02:07:53;24.53;;;19.40;;
19131;SDS011;9698;51.976;7.570;2023-11-19T02:10:20;23.87;;;19.23;;
19131;SDS011;9698;51.976;7.570;2023-11-19T02:12:51;27.17;;;20.40;;
19131;SDS011;9698;51.976;7.570;2023-11-19T02:15:19;23.73;;;20.07;;
19131;SDS011;9698;51.976;7.570;2023-11-19T02:17:48;26.40;;;20.47;;
19131;SDS011;9698;51.976;7.570;2023-11-19T02:20:15;27.03;;;20.43;;
19131;SDS011;9698;51.976;7.570;2023-11-19T02:22:46;23.70;;;18.90;;
19131;SDS011;9698;51.976;7.570;2023-11-19T02:25:17;25.27;;;19.73;;
19131;SDS011;9698;51.976;7.570;2023-11-19T02:27:52;28.33;;;21.20;;
19131;SDS011;9698;51.976;7.570;2023-11-19T02:30:23;30.20;;;20.93;;
19131;SDS011;9698;51.976;7.570;2023-11-19T02:32:52;24.50;;;19.70;;
19131;SDS011;9698;51.976;7.570;2023-11-19T02:35:20;23.03;;;18.90;;
19131;SDS011;9698;51.976;7.570;2023-11-19T02:37:48;31.40;;;21.43;;
19131;SDS011;9698;51.976;7.570;2023-11-19T02:40:16;29.77;;;20.30;;
19131;SDS011;9698;51.976;7.570;2023-11-19T02:42:44;27.60;;;18.63;;
19131;SDS011;9698;51.976;7.570;2023-11-19T02:45:12;25.90;;;19.10;;
19131;SDS011;9698;51.976;7.570;2023-11-19T02:47:40;23.93;;;17.57;;
19131;SDS011;9698;51.976;7.570;2023-11-19T02:50:09;20.87;;;16.73;;
19131;SDS011;9698;51.976;7.570;2023-11-19T02:52:40;24.73;;;15.23;;
19131;SDS011;9698;51.976;7.570;2023-11-19T02:55:08;23.47;;;15.17;;
19131;SDS011;9698;51.976;7.570;2023-11-19T02:57:38;17.83;;;13.47;;
19131;SDS011;9698;51.976;7.570;2023-11-19T03:00:13;19.73;;;14.27;;
19131;SDS011;9698;51.976;7.570;2023-11-19T03:02:42;23.53;;;13.43;;
19131;SDS011;9698;51.976;7.570;2023-11-19T03:05:12;19.00;;;11.90;;
19131;SDS011;9698;51.976;7.570;2023-11-19T03:07:41;16.87;;;11.07;;
19131;SDS011;9698;51.976;7.570;2023-11-19T03:10:10;15.07;;;10.60;;
19131;SDS011;9698;51.976;7.570;2023-11-19T03:12:40;15.23;;;11.30;;
19131;SDS011;9698;51.976;7.570;2023-11-19T03:15:09;16.77;;;10.40;;
19131;SDS011;9698;51.976;7.570;2023-11-19T03:17:38;17.23;;;11.00;;
19131;SDS011;9698;51.976;7.570;2023-11-19T03:20:08;17.50;;;11.17;;
19131;SDS011;9698;51.976;7.570;2023-11-19T03:22:37;17.07;;;9.63;;
19131;SDS011;9698;51.976;7.570;2023-11-19T03:25:05;14.77;;;9.43;;
19131;SDS011;9698;51.976;7.570;2023-11-19T03:27:35;20.83;;;9.77;;
19131;SDS011;9698;51.976;7.570;2023-11-19T03:30:03;17.57;;;9.07;;
19131;SDS011;9698;51.976;7.570;2023-11-19T03:32:32;16.63;;;9.20;;
19131;SDS011;9698;51.976;7.570;2023-11-19T03:35:01;18.33;;;9.10;;
19131;SDS011;9698;51.976;7.570;2023-11-19T03:37:30;14.83;;;8.37;;
19131;SDS011;9698;51.976;7.570;2023-11-19T03:39:58;14.97;;;7.90;;
19131;SDS011;9698;51.976;7.570;2023-11-19T03:42:29;12.67;;;8.10;;
19131;SDS011;9698;51.976;7.570;2023-11-19T03:44:56;16.73;;;7.97;;
19131;SDS011;9698;51.976;7.570;2023-11-19T03:47:25;12.77;;;7.63;;
19131;SDS011;9698;51.976;7.570;2023-11-19T03:49:52;17.33;;;7.50;;
19131;SDS011;9698;51.976;7.570;2023-11-19T03:52:20;12.03;;;7.00;;
19131;SDS011;9698;51.976;7.570;2023-11-19T03:54:48;12.27;;;6.90;;
19131;SDS011;9698;51.976;7.570;2023-11-19T03:57:16;14.90;;;7.63;;
19131;SDS011;9698;51.976;7.570;2023-11-19T03:59:44;16.40;;;6.90;;
19131;SDS011;9698;51.976;7.570;2023-11-19T04:02:12;14.07;;;6.50;;
19131;SDS011;9698;51.976;7.570;2023-11-19T04:04:40;16.13;;;6.17;;
19131;SDS011;9698;51.976;7.570;2023-11-19T04:07:08;18.80;;;6.17;;
19131;SDS011;9698;51.976;7.570;2023-11-19T04:09:36;18.30;;;6.13;;
19131;SDS011;9698;51.976;7.570;2023-11-19T04:12:04;18.30;;;6.20;;
19131;SDS011;9698;51.976;7.570;2023-11-19T04:14:33;18.23;;;6.27;;
19131;SDS011;9698;51.976;7.570;2023-11-19T04:17:03;19.20;;;5.80;;
19131;SDS011;9698;51.976;7.570;2023-11-19T04:19:31;18.10;;;5.37;;
19131;SDS011;9698;51.976;7.570;2023-11-19T04:21:59;24.57;;;6.37;;
19131;SDS011;9698;51.976;7.570;2023-11-19T04:24:27;17.13;;;5.20;;
19131;SDS011;9698;51.976;7.570;2023-11-19T04:26:55;16.80;;;5.43;;
19131;SDS011;9698;51.976;7.570;2023-11-19T04:29:22;18.33;;;5.70;;
19131;SDS011;9698;51.976;7.570;2023-11-19T04:31:50;19.60;;;5.97;;
19131;SDS011;9698;51.976;7.570;2023-11-19T04:34:18;18.47;;;5.30;;
19131;SDS011;9698;51.976;7.570;2023-11-19T04:36:45;18.40;;;5.40;;
19131;SDS011;9698;51.976;7.570;2023-11-19T04:39:13;14.27;;;4.47;;
19131;SDS011;9698;51.976;7.570;2023-11-19T04:41:48;19.97;;;4.20;;
19131;SDS011;9698;51.976;7.570;2023-11-19T04:44:16;15.87;;;5.47;;
19131;SDS011;9698;51.976;7.570;2023-11-19T04:46:44;18.87;;;5.17;;
19131;SDS011;9698;51.976;7.570;2023-11-19T04:49:13;18.23;;;5.23;;
19131;SDS011;9698;51.976;7.570;2023-11-19T04:51:41;17.50;;;4.40;;
19131;SDS011;9698;51.976;7.570;2023-11-19T04:54:10;16.87;;;5.17;;
19131;SDS011;9698;51.976;7.570;2023-11-19T04:56:38;19.20;;;5.17;;
19131;SDS011;9698;51.976;7.570;2023-11-19T04:59:06;20.23;;;5.20;;
19131;SDS011;9698;51.976;7.570;2023-11-19T05:01:35;16.83;;;4.70;;
19131;SDS011;9698;51.976;7.570;2023-11-19T05:04:03;19.40;;;5.67;;
19131;SDS011;9698;51.976;7.570;2023-11-19T05:06:31;14.20;;;4.80;;
19131;SDS011;9698;51.976;7.570;2023-11-19T05:08:59;15.50;;;5.63;;
19131;SDS011;9698;51.976;7.570;2023-11-19T05:11:32;18.57;;;4.90;;
19131;SDS011;9698;51.976;7.570;2023-11-19T05:14:02;12.43;;;5.10;;
19131;SDS011;9698;51.976;7.570;2023-11-19T05:16:30;16.67;;;5.17;;
19131;SDS011;9698;51.976;7.570;2023-11-19T05:18:58;16.90;;;5.53;;
19131;SDS011;9698;51.976;7.570;2023-11-19T05:21:26;17.53;;;5.13;;
19131;SDS011;9698;51.976;7.570;2023-11-19T05:23:54;17.80;;;5.10;;
19131;SDS011;9698;51.976;7.570;2023-11-19T05:26:23;18.47;;;4.73;;
19131;SDS011;9698;51.976;7.570;2023-11-19T05:28:51;25.10;;;6.13;;
19131;SDS011;9698;51.976;7.570;2023-11-19T05:31:18;14.60;;;5.00;;
19131;SDS011;9698;51.976;7.570;2023-11-19T05:33:46;22.77;;;5.80;;
19131;SDS011;9698;51.976;7.570;2023-11-19T05:36:14;21.13;;;6.03;;
19131;SDS011;9698;51.976;7.570;2023-11-19T05:38:42;19.30;;;5.43;;
19131;SDS011;9698;51.976;7.570;2023-11-19T05:41:11;22.20;;;6.07;;
19131;SDS011;9698;51.976;7.570;2023-11-19T05:43:38;29.87;;;6.37;;
19131;SDS011;9698;51.976;7.570;2023-11-19T05:46:06;19.53;;;5.53;;
19131;SDS011;9698;51.976;7.570;2023-11-19T05:48:46;20.93;;;5.97;;
19131;SDS011;9698;51.976;7.570;2023-11-19T05:51:14;23.60;;;6.10;;
19131;SDS011;9698;51.976;7.570;2023-11-19T05:53:42;26.37;;;7.07;;
19131;SDS011;9698;51.976;7.570;2023-11-19T05:56:11;17.43;;;5.63;;
19131;SDS011;9698;51.976;7.570;2023-11-19T05:58:41;20.07;;;5.70;;
19131;SDS011;9698;51.976;7.570;2023-11-19T06:01:10;22.63;;;5.53;;
19131;SDS011;9698;51.976;7.570;2023-11-19T06:03:38;23.50;;;5.53;;
19131;SDS011;9698;51.976;7.570;2023-11-19T06:06:07;22.77;;;5.83;;
19131;SDS011;9698;51.976;7.570;2023-11-19T06:08:35;20.10;;;5.20;;
19131;SDS011;9698;51.976;7.570;2023-11-19T06:11:04;23.80;;;5.57;;
19131;SDS011;9698;51.976;7.570;2023-11-19T06:13:32;23.17;;;5.63;;
19131;SDS011;9698;51.976;7.570;2023-11-19T06:15:59;20.50;;;5.07;;
19131;SDS011;9698;51.976;7.570;2023-11-19T06:18:29;21.13;;;5.27;;
19131;SDS011;9698;51.976;7.570;2023-11-19T06:20:57;24.00;;;4.93;;
19131;SDS011;9698;51.976;7.570;2023-11-19T06:23:25;22.07;;;4.90;;
19131;SDS011;9698;51.976;7.570;2023-11-19T06:25:53;22.03;;;5.27;;
19131;SDS011;9698;51.976;7.570;2023-11-19T06:28:20;19.60;;;5.33;;
19131;SDS011;9698;51.976;7.570;2023-11-19T06:30:48;23.37;;;5.63;;
19131;SDS011;9698;51.976;7.570;2023-11-19T06:33:16;23.50;;;5.50;;
19131;SDS011;9698;51.976;7.570;2023-11-19T06:35:44;30.23;;;6.07;;
19131;SDS011;9698;51.976;7.570;2023-11-19T06:38:12;22.87;;;5.60;;
19131;SDS011;9698;51.976;7.570;2023-11-19T06:40:40;22.27;;;6.50;;
19131;SDS011;9698;51.976;7.570;2023-11-19T06:43:08;24.13;;;5.00;;
19131;SDS011;9698;51.976;7.570;2023-11-19T06:45:36;20.40;;;4.77;;
19131;SDS011;9698;51.976;7.570;2023-11-19T06:48:04;22.40;;;5.47;;
19131;SDS011;9698;51.976;7.570;2023-11-19T06:50:32;22.67;;;5.00;;
19131;SDS011;9698;51.976;7.570;2023-11-19T06:53:00;20.80;;;4.77;;
19131;SDS011;9698;51.976;7.570;2023-11-19T06:55:27;17.77;;;4.70;;
19131;SDS011;9698;51.976;7.570;2023-11-19T06:57:55;23.73;;;5.60;;
19131;SDS011;9698;51.976;7.570;2023-11-19T07:00:24;25.13;;;5.47;;
19131;SDS011;9698;51.976;7.570;2023-11-19T07:02:51;23.57;;;5.33;;
19131;SDS011;9698;51.976;7.570;2023-11-19T07:05:19;21.47;;;5.03;;
19131;SDS011;9698;51.976;7.570;2023-11-19T07:07:47;20.70;;;4.73;;
19131;SDS011;9698;51.976;7.570;2023-11-19T07:10:15;27.63;;;6.03;;
19131;SDS011;9698;51.976;7.570;2023-11-19T07:12:42;25.07;;;4.93;;
19131;SDS011;9698;51.976;7.570;2023-11-19T07:15:11;29.20;;;5.40;;
19131;SDS011;9698;51.976;7.570;2023-11-19T07:17:39;22.73;;;5.63;;
19131;SDS011;9698;51.976;7.570;2023-11-19T07:20:08;20.57;;;5.03;;
19131;SDS011;9698;51.976;7.570;2023-11-19T07:22:39;26.23;;;5.53;;
19131;SDS011;9698;51.976;7.570;2023-11-19T07:25:09;24.67;;;4.87;;
19131;SDS011;9698;51.976;7.570;2023-11-19T07:27:37;24.60;;;5.23;;
19131;SDS011;9698;51.976;7.570;2023-11-19T07:30:09;31.13;;;5.67;;
19131;SDS011;9698;51.976;7.570;2023-11-19T07:32:37;29.57;;;6.13;;
19131;SDS011;9698;51.976;7.570;2023-11-19T07:35:06;23.93;;;5.53;;
19131;SDS011;9698;51.976;7.570;2023-11-19T07:37:35;19.57;;;4.87;;
19131;SDS011;9698;51.976;7.570;2023-11-19T07:40:04;26.73;;;5.97;;
19131;SDS011;9698;51.976;7.570;2023-11-19T07:42:33;21.87;;;6.07;;
19131;SDS011;9698;51.976;7.570;2023-11-19T07:45:03;30.10;;;5.33;;
19131;SDS011;9698;51.976;7.570;2023-11-19T07:47:33;17.50;;;4.80;;
19131;SDS011;9698;51.976;7.570;2023-11-19T07:50:01;24.70;;;4.50;;
19131;SDS011;9698;51.976;7.570;2023-11-19T07:52:29;22.93;;;5.03;;
19131;SDS011;9698;51.976;7.570;2023-11-19T07:54:57;22.43;;;5.37;;
19131;SDS011;9698;51.976;7.570;2023-11-19T07:57:25;18.70;;;6.00;;
19131;SDS011;9698;51.976;7.570;2023-11-19T07:59:57;24.67;;;5.83;;
19131;SDS011;9698;51.976;7.570;2023-11-19T08:02:24;21.33;;;6.33;;
19131;SDS011;9698;51.976;7.570;2023-11-19T08:04:52;21.63;;;5.03;;
19131;SDS011;9698;51.976;7.570;2023-11-19T08:07:21;22.77;;;5.47;;
19131;SDS011;9698;51.976;7.570;2023-11-19T08:09:49;19.40;;;5.33;;
19131;SDS011;9698;51.976;7.570;2023-11-19T08:12:16;20.27;;;5.57;;
19131;SDS011;9698;51.976;7.570;2023-11-19T08:14:44;29.60;;;5.73;;
19131;SDS011;9698;51.976;7.570;2023-11-19T08:17:12;21.73;;;4.83;;
19131;SDS011;9698;51.976;7.570;2023-11-19T08:19:40;24.20;;;5.67;;
19131;SDS011;9698;51.976;7.570;2023-11-19T08:22:07;29.77;;;6.07;;
19131;SDS011;9698;51.976;7.570;2023-11-19T08:24:35;24.53;;;5.37;;
19131;SDS011;9698;51.976;7.570;2023-11-19T08:27:03;23.23;;;5.33;;
19131;SDS011;9698;51.976;7.570;2023-11-19T08:29:31;31.70;;;5.30;;
19131;SDS011;9698;51.976;7.570;2023-11-19T08:32:00;22.63;;;5.17;;
19131;SDS011;9698;51.976;7.570;2023-11-19T08:34:29;22.40;;;5.90;;
19131;SDS011;9698;51.976;7.570;2023-11-19T08:36:57;24.20;;;5.23;;
19131;SDS011;9698;51.976;7.570;2023-11-19T08:39:25;26.10;;;5.00;;
19131;SDS011;9698;51.976;7.570;2023-11-19T08:41:53;21.33;;;5.13;;
19131;SDS011;9698;51.976;7.570;2023-11-19T08:44:21;25.83;;;5.80;;
19131;SDS011;9698;51.976;7.570;2023-11-19T08:46:49;23.50;;;5.53;;
19131;SDS011;9698;51.976;7.570;2023-11-19T08:49:17;21.73;;;4.83;;
19131;SDS011;9698;51.976;7.570;2023-11-19T08:51:45;25.03;;;5.30;;
19131;SDS011;9698;51.976;7.570;2023-11-19T08:54:13;21.47;;;5.13;;
19131;SDS011;9698;51.976;7.570;2023-11-19T08:56:41;18.37;;;5.37;;
19131;SDS011;9698;51.976;7.570;2023-11-19T08:59:08;26.57;;;5.90;;
19131;SDS011;9698;51.976;7.570;2023-11-19T09:01:36;29.63;;;5.73;;
19131;SDS011;9698;51.976;7.570;2023-11-19T09:04:04;21.77;;;6.20;;
19131;SDS011;9698;51.976;7.570;2023-11-19T09:06:32;26.10;;;6.10;;
19131;SDS011;9698;51.976;7.570;2023-11-19T09:09:02;20.53;;;5.20;;
19131;SDS011;9698;51.976;7.570;2023-11-19T09:11:31;27.83;;;6.53;;
19131;SDS011;9698;51.976;7.570;2023-11-19T09:13:59;24.30;;;5.70;;
19131;SDS011;9698;51.976;7.570;2023-11-19T09:16:27;27.63;;;5.93;;
19131;SDS011;9698;51.976;7.570;2023-11-19T09:18:54;25.20;;;5.67;;
19131;SDS011;9698;51.976;7.570;2023-11-19T09:21:24;25.57;;;5.63;;
19131;SDS011;9698;51.976;7.570;2023-11-19T09:23:51;24.37;;;6.07;;
19131;SDS011;9698;51.976;7.570;2023-11-19T09:26:20;23.33;;;5.33;;
19131;SDS011;9698;51.976;7.570;2023-11-19T09:28:48;25.97;;;5.43;;
19131;SDS011;9698;51.976;7.570;2023-11-19T09:31:15;28.20;;;5.50;;
19131;SDS011;9698;51.976;7.570;2023-11-19T09:33:44;22.77;;;5.83;;
19131;SDS011;9698;51.976;7.570;2023-11-19T09:36:13;22.80;;;5.83;;
19131;SDS011;9698;51.976;7.570;2023-11-19T09:38:40;25.60;;;5.73;;
19131;SDS011;9698;51.976;7.570;2023-11-19T09:41:09;27.47;;;5.50;;
19131;SDS011;9698;51.976;7.570;2023-11-19T09:43:39;27.70;;;5.90;;
19131;SDS011;9698;51.976;7.570;2023-11-19T09:46:09;22.90;;;5.07;;
19131;SDS011;9698;51.976;7.570;2023-11-19T09:48:38;24.23;;;5.63;;
19131;SDS011;9698;51.976;7.570;2023-11-19T09:51:07;26.97;;;6.33;;
19131;SDS011;9698;51.976;7.570;2023-11-19T09:53:36;21.27;;;4.87;;
19131;SDS011;9698;51.976;7.570;2023-11-19T09:56:05;25.40;;;4.90;;
19131;SDS011;9698;51.976;7.570;2023-11-19T09:58:34;24.80;;;5.60;;
19131;SDS011;9698;51.976;7.570;2023-11-19T10:01:02;28.00;;;5.93;;
19131;SDS011;9698;51.976;7.570;2023-11-19T10:03:36;23.00;;;6.03;;
19131;SDS011;9698;51.976;7.570;2023-11-19T10:06:07;22.93;;;5.17;;
19131;SDS011;9698;51.976;7.570;2023-11-19T10:08:36;25.00;;;5.60;;
19131;SDS011;9698;51.976;7.570;2023-11-19T10:11:05;27.37;;;5.33;;
19131;SDS011;9698;51.976;7.570;2023-11-19T10:13:34;20.53;;;5.57;;
19131;SDS011;9698;51.976;7.570;2023-11-19T10:16:06;24.43;;;4.67;;
19131;SDS011;9698;51.976;7.570;2023-11-19T10:18:37;25.33;;;5.97;;
19131;SDS011;9698;51.976;7.570;2023-11-19T10:21:10;21.43;;;5.30;;
19131;SDS011;9698;51.976;7.570;2023-11-19T10:23:49;30.50;;;5.23;;
19131;SDS011;9698;51.976;7.570;2023-11-19T10:26:18;24.47;;;5.13;;
19131;SDS011;9698;51.976;7.570;2023-11-19T10:28:46;26.20;;;7.00;;
19131;SDS011;9698;51.976;7.570;2023-11-19T10:31:15;25.40;;;5.77;;
19131;SDS011;9698;51.976;7.570;2023-11-19T10:33:44;20.23;;;5.07;;
19131;SDS011;9698;51.976;7.570;2023-11-19T10:36:13;31.07;;;5.37;;
19131;SDS011;9698;51.976;7.570;2023-11-19T10:38:41;22.03;;;5.33;;
19131;SDS011;9698;51.976;7.570;2023-11-19T10:41:28;27.53;;;5.73;;
19131;SDS011;9698;51.976;7.570;2023-11-19T10:43:57;22.53;;;5.20;;
19131;SDS011;9698;51.976;7.570;2023-11-19T10:46:36;23.00;;;5.23;;
19131;SDS011;9698;51.976;7.570;2023-11-19T10:49:05;24.90;;;4.97;;
19131;SDS011;9698;51.976;7.570;2023-11-19T10:51:33;29.90;;;5.30;;
19131;SDS011;9698;51.976;7.570;2023-11-19T10:54:02;20.43;;;4.93;;
19131;SDS011;9698;51.976;7.570;2023-11-19T10:56:32;25.93;;;5.17;;
19131;SDS011;9698;51.976;7.570;2023-11-19T10:59:00;26.70;;;4.80;;
19131;SDS011;9698;51.976;7.570;2023-11-19T11:01:33;22.57;;;6.07;;
19131;SDS011;9698;51.976;7.570;2023-11-19T11:04:07;23.20;;;4.77;;
19131;SDS011;9698;51.976;7.570;2023-11-19T11:06:41;22.77;;;5.10;;
19131;SDS011;9698;51.976;7.570;2023-11-19T11:09:10;22.27;;;4.27;;
19131;SDS011;9698;51.976;7.570;2023-11-19T11:11:41;26.40;;;4.87;;
19131;SDS011;9698;51.976;7.570;2023-11-19T11:14:14;20.77;;;4.97;;
19131;SDS011;9698;51.976;7.570;2023-11-19T11:16:45;21.50;;;4.87;;
19131;SDS011;9698;51.976;7.570;2023-11-19T11:19:15;23.33;;;4.83;;
19131;SDS011;9698;51.976;7.570;2023-11-19T11:21:53;19.77;;;4.40;;
19131;SDS011;9698;51.976;7.570;2023-11-19T11:24:32;21.73;;;5.20;;
19131;SDS011;9698;51.976;7.570;2023-11-19T11:30:10;19.53;;;5.07;;
19131;SDS011;9698;51.976;7.570;2023-11-19T11:32:45;21.70;;;5.30;;
19131;SDS011;9698;51.976;7.570;2023-11-19T11:35:29;27.93;;;6.13;;
19131;SDS011;9698;51.976;7.570;2023-11-19T11:38:06;17.60;;;5.07;;
19131;SDS011;9698;51.976;7.570;2023-11-19T11:40:35;21.67;;;5.40;;
19131;SDS011;9698;51.976;7.570;2023-11-19T11:43:03;26.20;;;5.60;;
19131;SDS011;9698;51.976;7.570;2023-11-19T11:45:37;19.67;;;5.33;;
19131;SDS011;9698;51.976;7.570;2023-11-19T11:48:09;23.87;;;4.73;;
19131;SDS011;9698;51.976;7.570;2023-11-19T11:50:51;21.47;;;5.90;;
19131;SDS011;9698;51.976;7.570;2023-11-19T11:53:21;24.37;;;4.93;;
19131;SDS011;9698;51.976;7.570;2023-11-19T11:55:56;23.70;;;5.47;;
19131;SDS011;9698;51.976;7.570;2023-11-19T11:58:30;23.77;;;4.70;;
19131;SDS011;9698;51.976;7.570;2023-11-19T12:01:00;18.97;;;5.00;;
19131;SDS011;9698;51.976;7.570;2023-11-19T12:03:29;19.53;;;4.83;;
19131;SDS011;9698;51.976;7.570;2023-11-19T12:05:57;21.20;;;4.30;;
19131;SDS011;9698;51.976;7.570;2023-11-19T12:08:26;25.63;;;5.03;;
19131;SDS011;9698;51.976;7.570;2023-11-19T12:10:56;25.00;;;5.47;;
19131;SDS011;9698;51.976;7.570;2023-11-19T12:13:42;24.20;;;5.10;;
19131;SDS011;9698;51.976;7.570;2023-11-19T12:16:14;22.73;;;4.93;;
19131;SDS011;9698;51.976;7.570;2023-11-19T12:18:42;19.63;;;4.97;;
19131;SDS011;9698;51.976;7.570;2023-11-19T12:21:11;24.10;;;4.73;;
19131;SDS011;9698;51.976;7.570;2023-11-19T12:23:53;21.33;;;5.30;;
19131;SDS011;9698;51.976;7.570;2023-11-19T12:26:30;27.00;;;5.70;;
19131;SDS011;9698;51.976;7.570;2023-11-19T12:29:02;23.77;;;4.73;;
19131;SDS011;9698;51.976;7.570;2023-11-19T12:31:35;22.47;;;4.90;;
19131;SDS011;9698;51.976;7.570;2023-11-19T12:34:09;21.33;;;5.13;;
19131;SDS011;9698;51.976;7.570;2023-11-19T12:36:38;21.57;;;4.73;;
19131;SDS011;9698;51.976;7.570;2023-11-19T12:39:07;19.00;;;4.87;;
19131;SDS011;9698;51.976;7.570;2023-11-19T12:41:49;14.63;;;4.67;;
19131;SDS011;9698;51.976;7.570;2023-11-19T12:44:17;23.60;;;4.93;;
19131;SDS011;9698;51.976;7.570;2023-11-19T12:46:45;23.13;;;5.10;;
19131;SDS011;9698;51.976;7.570;2023-11-19T12:49:13;19.93;;;4.97;;
19131;SDS011;9698;51.976;7.570;2023-11-19T12:51:41;19.43;;;6.73;;
19131;SDS011;9698;51.976;7.570;2023-11-19T12:54:09;18.83;;;5.20;;
19131;SDS011;9698;51.976;7.570;2023-11-19T12:56:36;18.60;;;4.63;;
19131;SDS011;9698;51.976;7.570;2023-11-19T12:59:10;27.73;;;6.63;;
19131;SDS011;9698;51.976;7.570;2023-11-19T13:01:39;17.07;;;5.10;;
19131;SDS011;9698;51.976;7.570;2023-11-19T13:04:18;21.80;;;4.77;;
19131;SDS011;9698;51.976;7.570;2023-11-19T13:06:46;17.43;;;4.33;;
19131;SDS011;9698;51.976;7.570;2023-11-19T13:09:31;20.90;;;4.50;;
19131;SDS011;9698;51.976;7.570;2023-11-19T13:11:59;18.23;;;4.23;;
19131;SDS011;9698;51.976;7.570;2023-11-19T13:14:38;20.80;;;4.77;;
19131;SDS011;9698;51.976;7.570;2023-11-19T13:17:08;18.07;;;4.53;;
19131;SDS011;9698;51.976;7.570;2023-11-19T13:19:38;23.00;;;4.67;;
19131;SDS011;9698;51.976;7.570;2023-11-19T13:22:07;18.33;;;3.90;;
19131;SDS011;9698;51.976;7.570;2023-11-19T13:24:35;18.17;;;4.63;;
19131;SDS011;9698;51.976;7.570;2023-11-19T13:27:04;19.87;;;4.33;;
19131;SDS011;9698;51.976;7.570;2023-11-19T13:29:32;15.23;;;3.93;;
19131;SDS011;9698;51.976;7.570;2023-11-19T13:32:01;20.33;;;4.27;;
19131;SDS011;9698;51.976;7.570;2023-11-19T13:34:30;18.60;;;4.20;;
19131;SDS011;9698;51.976;7.570;2023-11-19T13:36:58;19.07;;;4.23;;
19131;SDS011;9698;51.976;7.570;2023-11-19T13:39:26;14.93;;;3.90;;
19131;SDS011;9698;51.976;7.570;2023-11-19T13:41:54;18.50;;;4.53;;
19131;SDS011;9698;51.976;7.570;2023-11-19T13:44:39;19.50;;;4.73;;
19131;SDS011;9698;51.976;7.570;2023-11-19T13:47:07;20.63;;;4.17;;
19131;SDS011;9698;51.976;7.570;2023-11-19T13:49:37;19.23;;;4.33;;
19131;SDS011;9698;51.976;7.570;2023-11-19T13:52:05;16.30;;;4.17;;
19131;SDS011;9698;51.976;7.570;2023-11-19T13:54:33;15.50;;;3.87;;
19131;SDS011;9698;51.976;7.570;2023-11-19T13:57:01;19.60;;;4.30;;
19131;SDS011;9698;51.976;7.570;2023-11-19T13:59:30;18.23;;;3.73;;
19131;SDS011;9698;51.976;7.570;2023-11-19T14:01:58;16.07;;;4.13;;
19131;SDS011;9698;51.976;7.570;2023-11-19T14:04:27;15.77;;;3.20;;
19131;SDS011;9698;51.976;7.570;2023-11-19T14:06:55;16.80;;;3.73;;
19131;SDS011;9698;51.976;7.570;2023-11-19T14:09:23;13.00;;;4.47;;
19131;SDS011;9698;51.976;7.570;2023-11-19T14:11:50;14.57;;;3.73;;
19131;SDS011;9698;51.976;7.570;2023-11-19T14:14:18;18.23;;;4.07;;
19131;SDS011;9698;51.976;7.570;2023-11-19T14:16:46;14.63;;;3.20;;
19131;SDS011;9698;51.976;7.570;2023-11-19T14:19:14;12.67;;;3.20;;
19131;SDS011;9698;51.976;7.570;2023-11-19T14:21:42;15.00;;;3.77;;
19131;SDS011;9698;51.976;7.570;2023-11-19T14:24:11;15.10;;;3.50;;
19131;SDS011;9698;51.976;7.570;2023-11-19T14:26:39;14.63;;;3.73;;
19131;SDS011;9698;51.976;7.570;2023-11-19T14:29:07;17.37;;;4.20;;
19131;SDS011;9698;51.976;7.570;2023-11-19T14:31:35;15.50;;;3.80;;
19131;SDS011;9698;51.976;7.570;2023-11-19T14:34:02;12.87;;;3.37;;
19131;SDS011;9698;51.976;7.570;2023-11-19T14:36:30;19.07;;;4.30;;
19131;SDS011;9698;51.976;7.570;2023-11-19T14:38:58;15.97;;;4.50;;
19131;SDS011;9698;51.976;7.570;2023-11-19T14:41:26;16.07;;;4.10;;
19131;SDS011;9698;51.976;7.570;2023-11-19T14:43:54;16.93;;;3.80;;
19131;SDS011;9698;51.976;7.570;2023-11-19T14:46:21;19.20;;;3.97;;
19131;SDS011;9698;51.976;7.570;2023-11-19T14:48:49;12.87;;;3.23;;
19131;SDS011;9698;51.976;7.570;2023-11-19T14:51:17;21.00;;;4.40;;
19131;SDS011;9698;51.976;7.570;2023-11-19T14:53:46;14.30;;;3.90;;
19131;SDS011;9698;51.976;7.570;2023-11-19T14:56:14;15.17;;;3.50;;
19131;SDS011;9698;51.976;7.570;2023-11-19T14:58:42;13.07;;;4.07;;
19131;SDS011;9698;51.976;7.570;2023-11-19T15:01:11;14.93;;;3.77;;